createdAt,value
2019-01-22T00:01:14.231Z,-5.12
2019-01-22T00:03:45.249Z,-5.19
2019-01-22T00:06:16.254Z,-5.22
2019-01-22T00:08:47.307Z,-5.23
2019-01-22T00:11:18.234Z,-5.14
2019-01-22T00:13:49.265Z,-5.06
2019-01-22T00:16:20.223Z,-5.05
2019-01-22T00:18:53.063Z,-5.14
2019-01-22T00:21:25.739Z,-5.07
2019-01-22T00:23:56.674Z,-5.09
2019-01-22T00:26:29.532Z,-5.17
2019-01-22T00:29:00.529Z,-5.18
2019-01-22T00:31:31.457Z,-5.19
2019-01-22T00:34:02.612Z,-5.17
2019-01-22T00:36:33.574Z,-5.21
2019-01-22T00:39:04.917Z,-5.26
2019-01-22T00:41:35.614Z,-5.19
2019-01-22T00:44:06.715Z,-5.21
2019-01-22T00:46:37.655Z,-5.28
2019-01-22T00:49:09.571Z,-5.28
2019-01-22T00:51:39.965Z,-5.38
2019-01-22T00:54:10.681Z,-5.27
2019-01-22T00:56:41.642Z,-5.31
2019-01-22T00:59:12.738Z,-5.37
2019-01-22T01:01:43.753Z,-5.30
2019-01-22T01:04:14.723Z,-5.36
2019-01-22T01:06:47.688Z,-5.42
2019-01-22T01:09:18.714Z,-5.36
2019-01-22T01:11:49.746Z,-5.49
2019-01-22T01:14:21.739Z,-5.46
2019-01-22T01:16:52.873Z,-5.34
2019-01-22T01:19:25.958Z,-5.27
2019-01-22T01:21:56.802Z,-5.25
2019-01-22T01:24:27.753Z,-5.14
2019-01-22T01:27:00.003Z,-5.15
2019-01-22T01:29:32.805Z,-5.16
2019-01-22T01:32:03.359Z,-5.23
2019-01-22T01:34:33.845Z,-5.12
2019-01-22T01:37:04.211Z,-5.13
2019-01-22T01:39:36.556Z,-5.16
2019-01-22T01:42:06.935Z,-5.13
2019-01-22T01:44:37.822Z,-5.26
2019-01-22T01:47:09.409Z,-5.36
2019-01-22T01:49:39.944Z,-5.36
2019-01-22T01:52:10.478Z,-5.45
2019-01-22T01:54:41.972Z,-5.46
2019-01-22T01:57:12.902Z,-5.51
2019-01-22T01:59:44.246Z,-5.62
2019-01-22T02:02:14.986Z,-5.73
2019-01-22T02:04:45.967Z,-5.84
2019-01-22T02:07:16.925Z,-5.89
2019-01-22T02:09:47.856Z,-6.00
2019-01-22T02:12:22.926Z,-6.03
2019-01-22T02:15:00.874Z,-6.11
2019-01-22T02:18:23.062Z,-6.15
2019-01-22T02:21:34.184Z,-6.20
2019-01-22T02:24:41.743Z,-6.02
2019-01-22T02:27:44.694Z,-6.04
2019-01-22T02:30:36.654Z,-6.07
2019-01-22T02:33:43.533Z,-6.09
2019-01-22T02:37:01.535Z,-6.14
2019-01-22T02:40:02.577Z,-6.09
2019-01-22T02:43:05.326Z,-6.02
2019-01-22T02:46:16.857Z,-5.97
2019-01-22T02:49:24.595Z,-5.87
2019-01-22T02:52:45.683Z,-5.75
2019-01-22T02:55:25.811Z,-5.79
2019-01-22T02:58:34.347Z,-5.83
2019-01-22T03:01:43.432Z,-5.75
2019-01-22T03:04:45.620Z,-5.80
2019-01-22T03:07:32.643Z,-5.92
2019-01-22T03:10:50.725Z,-5.88
2019-01-22T03:14:13.084Z,-5.99
2019-01-22T03:17:28.678Z,-6.10
2019-01-22T03:20:25.889Z,-6.04
2019-01-22T03:24:05.223Z,-6.02
2019-01-22T03:27:14.155Z,-5.99
2019-01-22T03:30:25.422Z,-6.05
2019-01-22T03:33:51.448Z,-6.20
2019-01-22T03:37:06.130Z,-6.34
2019-01-22T03:39:57.653Z,-6.35
2019-01-22T03:42:48.307Z,-6.47
2019-01-22T03:45:56.803Z,-6.57
2019-01-22T03:48:49.039Z,-6.56
2019-01-22T03:51:44.620Z,-6.54
2019-01-22T03:54:43.685Z,-6.51
2019-01-22T03:57:37.552Z,-6.52
2019-01-22T04:00:16.590Z,-6.59
2019-01-22T04:02:48.544Z,-6.67
2019-01-22T04:05:19.548Z,-6.73
2019-01-22T04:07:50.512Z,-6.78
2019-01-22T04:10:37.844Z,-6.81
2019-01-22T04:13:10.686Z,-6.89
2019-01-22T04:15:43.131Z,-7.01
2019-01-22T04:18:15.579Z,-7.09
2019-01-22T04:20:48.624Z,-7.09
2019-01-22T04:23:45.304Z,-6.98
2019-01-22T04:26:40.120Z,-6.98
2019-01-22T04:29:28.644Z,-7.06
2019-01-22T04:32:30.152Z,-7.10
2019-01-22T04:35:48.208Z,-7.18
2019-01-22T04:39:16.134Z,-7.24
2019-01-22T04:42:44.042Z,-7.33
2019-01-22T04:46:11.961Z,-7.37
2019-01-22T04:49:40.040Z,-7.39
2019-01-22T04:52:52.687Z,-7.25
2019-01-22T04:56:01.805Z,-7.40
2019-01-22T04:59:29.681Z,-7.40
2019-01-22T05:02:57.626Z,-7.37
2019-01-22T05:09:15.923Z,-7.66
2019-01-22T05:12:43.796Z,-7.56
2019-01-22T05:16:11.677Z,-7.66
2019-01-22T05:19:19.177Z,-7.71
2019-01-22T05:22:47.186Z,-7.78
2019-01-22T05:25:41.305Z,-7.75
2019-01-22T05:29:09.188Z,-7.77
2019-01-22T05:32:37.053Z,-7.84
2019-01-22T05:35:52.746Z,-7.83
2019-01-22T05:42:24.477Z,-7.85
2019-01-22T05:45:40.143Z,-7.78
2019-01-22T05:48:55.629Z,-7.68
2019-01-22T05:52:04.167Z,-7.62
2019-01-22T05:55:21.429Z,-7.55
2019-01-22T05:58:49.298Z,-7.52
2019-01-22T06:01:30.718Z,-7.48
2019-01-22T06:04:58.681Z,-7.42
2019-01-22T06:08:10.954Z,-7.41
2019-01-22T06:11:07.323Z,-7.34
2019-01-22T06:14:35.184Z,-7.28
2019-01-22T06:18:03.174Z,-7.32
2019-01-22T06:21:25.527Z,-7.38
2019-01-22T06:24:35.647Z,-7.39
2019-01-22T06:27:32.472Z,-7.40
2019-01-22T06:30:41.869Z,-7.33
2019-01-22T06:34:09.789Z,-7.33
2019-01-22T06:37:38.793Z,-7.29
2019-01-22T06:40:50.978Z,-7.20
2019-01-22T06:44:07.462Z,-7.19
2019-01-22T06:47:35.326Z,-6.94
2019-01-22T06:50:43.992Z,-6.90
2019-01-22T06:53:55.724Z,-6.91
2019-01-22T06:56:59.486Z,-7.04
2019-01-22T07:00:27.443Z,-7.05
2019-01-22T07:03:55.352Z,-7.02
2019-01-22T07:07:23.220Z,-7.03
2019-01-22T07:10:51.088Z,-7.07
2019-01-22T07:14:19.050Z,-7.09
2019-01-22T07:17:27.609Z,-7.11
2019-01-22T07:20:55.474Z,-7.07
2019-01-22T07:24:23.400Z,-7.02
2019-01-22T07:27:39.376Z,-6.97
2019-01-22T07:31:07.721Z,-6.93
2019-01-22T07:34:16.241Z,-6.85
2019-01-22T07:37:44.175Z,-6.82
2019-01-22T07:40:52.642Z,-6.73
2019-01-22T07:44:20.547Z,-6.73
2019-01-22T07:47:48.518Z,-6.73
2019-01-22T07:51:16.420Z,-6.68
2019-01-22T07:54:44.276Z,-6.59
2019-01-22T07:58:12.190Z,-6.53
2019-01-22T08:01:40.119Z,-6.44
2019-01-22T08:05:26.939Z,-6.28
2019-01-22T08:08:56.631Z,-6.41
2019-01-22T08:12:08.386Z,-6.41
2019-01-22T08:15:18.523Z,-6.29
2019-01-22T08:18:46.559Z,-6.17
2019-01-22T08:22:14.405Z,-6.15
2019-01-22T08:25:42.301Z,-6.12
2019-01-22T08:28:50.648Z,-5.97
2019-01-22T08:32:18.561Z,-5.81
2019-01-22T08:35:46.416Z,-5.66
2019-01-22T08:38:58.364Z,-5.36
2019-01-22T08:42:26.235Z,-5.15
2019-01-22T08:45:39.334Z,-4.84
2019-01-22T08:49:07.200Z,-4.56
2019-01-22T08:52:15.671Z,-4.29
2019-01-22T08:55:31.963Z,-4.11
2019-01-22T08:58:52.091Z,-3.95
2019-01-22T09:02:19.951Z,-3.90
2019-01-22T09:05:47.821Z,-3.78
2019-01-22T09:09:15.926Z,-3.71
2019-01-22T09:12:43.911Z,-3.80
2019-01-22T09:16:11.812Z,-3.66
2019-01-22T09:19:39.679Z,-3.61
2019-01-22T09:23:07.541Z,-3.44
2019-01-22T09:26:35.462Z,-3.45
2019-01-22T09:29:35.676Z,-3.47
2019-01-22T09:32:34.050Z,-3.55
2019-01-22T09:35:42.650Z,-3.49
2019-01-22T09:38:32.466Z,-3.44
2019-01-22T09:41:22.328Z,-3.30
2019-01-22T09:44:12.187Z,-3.13
2019-01-22T09:47:02.037Z,-3.08
2019-01-22T09:49:51.847Z,-2.99
2019-01-22T09:52:41.768Z,-2.91
2019-01-22T09:55:31.648Z,-2.79
2019-01-22T09:58:22.418Z,-2.70
2019-01-22T10:01:12.546Z,-2.65
2019-01-22T10:04:03.657Z,-2.86
2019-01-22T10:06:45.339Z,-2.75
2019-01-22T10:09:35.155Z,-2.84
2019-01-22T10:12:25.004Z,-2.80
2019-01-22T10:18:20.310Z,-2.58
2019-01-22T10:21:10.121Z,-2.74
2019-01-22T10:23:59.929Z,-2.66
2019-01-22T10:26:49.714Z,-2.51
2019-01-22T10:29:39.507Z,-2.55
2019-01-22T10:32:48.336Z,-2.70
2019-01-22T10:35:38.348Z,-2.62
2019-01-22T10:38:28.197Z,-2.76
2019-01-22T10:41:18.275Z,-2.61
2019-01-22T10:44:08.387Z,-2.54
2019-01-22T10:46:45.136Z,-2.57
2019-01-22T10:49:34.992Z,-2.62
2019-01-22T10:52:24.851Z,-2.70
2019-01-22T10:58:17.364Z,-2.62
2019-01-22T11:01:07.190Z,-2.82
2019-01-22T11:03:57.033Z,-2.72
2019-01-22T11:06:46.879Z,-2.58
2019-01-22T11:09:36.737Z,-2.67
2019-01-22T11:12:26.630Z,-2.75
2019-01-22T11:15:16.623Z,-2.72
2019-01-22T11:18:07.254Z,-2.63
2019-01-22T11:20:57.124Z,-2.56
2019-01-22T11:23:47.055Z,-2.50
2019-01-22T11:26:36.931Z,-2.55
2019-01-22T11:29:07.349Z,-2.67
2019-01-22T11:31:57.231Z,-2.72
2019-01-22T11:34:47.106Z,-2.76
2019-01-22T11:37:36.906Z,-2.83
2019-01-22T11:40:46.694Z,-2.87
2019-01-22T11:43:36.511Z,-2.95
2019-01-22T11:46:26.418Z,-2.97
2019-01-22T11:49:16.301Z,-2.96
2019-01-22T11:55:27.289Z,-2.84
2019-01-22T11:58:17.111Z,-2.93
2019-01-22T12:01:07.090Z,-2.88
2019-01-22T12:03:37.613Z,-2.78
2019-01-22T12:06:27.492Z,-2.66
2019-01-22T12:09:17.308Z,-2.73
2019-01-22T12:12:07.238Z,-2.74
2019-01-22T12:14:57.078Z,-2.74
2019-01-22T12:17:27.652Z,-2.85
2019-01-22T12:20:20.435Z,-2.69
2019-01-22T12:23:10.315Z,-2.71
2019-01-22T12:26:00.134Z,-2.93
2019-01-22T12:28:30.926Z,-3.03
2019-01-22T12:31:20.804Z,-3.04
2019-01-22T12:34:10.722Z,-2.93
2019-01-22T12:37:00.942Z,-2.91
2019-01-22T12:39:50.793Z,-2.94
2019-01-22T12:42:40.599Z,-3.02
2019-01-22T12:48:23.716Z,-3.28
2019-01-22T12:51:13.536Z,-3.09
2019-01-22T12:54:03.353Z,-3.21
2019-01-22T12:56:33.903Z,-3.08
2019-01-22T12:59:04.330Z,-3.10
2019-01-22T13:01:54.137Z,-3.25
2019-01-22T13:04:43.923Z,-3.22
2019-01-22T13:07:14.402Z,-3.18
2019-01-22T13:09:44.912Z,-3.15
2019-01-22T13:12:34.715Z,-3.21
2019-01-22T13:18:30.513Z,-3.33
2019-01-22T13:21:20.318Z,-3.50
2019-01-22T13:23:50.699Z,-3.45
2019-01-22T13:26:21.080Z,-3.61
2019-01-22T13:29:10.906Z,-3.64
2019-01-22T13:32:00.647Z,-3.58
2019-01-22T13:34:50.525Z,-3.56
2019-01-22T13:37:40.296Z,-3.62
2019-01-22T13:40:30.347Z,-3.72
2019-01-22T13:43:20.149Z,-3.74
2019-01-22T13:46:10.003Z,-3.71
2019-01-22T13:48:59.826Z,-3.75
2019-01-22T13:51:49.645Z,-3.84
2019-01-22T13:54:39.459Z,-3.84
2019-01-22T13:57:29.286Z,-3.74
2019-01-22T14:00:20.952Z,-3.59
2019-01-22T14:03:10.826Z,-3.68
2019-01-22T14:06:00.622Z,-3.66
2019-01-22T14:08:50.452Z,-3.76
2019-01-22T14:11:40.289Z,-3.72
2019-01-22T14:14:30.161Z,-3.67
2019-01-22T14:17:00.562Z,-3.60
2019-01-22T14:19:50.358Z,-3.59
2019-01-22T14:22:40.241Z,-3.64
2019-01-22T14:25:30.114Z,-3.80
2019-01-22T14:28:00.554Z,-3.74
2019-01-22T14:30:50.338Z,-3.83
2019-01-22T14:33:40.135Z,-3.79
2019-01-22T14:36:29.918Z,-3.71
2019-01-22T14:39:26.482Z,-3.62
2019-01-22T14:42:11.524Z,-3.61
2019-01-22T14:45:01.357Z,-3.68
2019-01-22T14:47:51.302Z,-3.68
2019-01-22T14:50:41.222Z,-3.71
2019-01-22T14:53:30.998Z,-3.64
2019-01-22T14:56:20.938Z,-3.62
2019-01-22T14:58:51.384Z,-3.61
2019-01-22T15:01:41.277Z,-3.44
2019-01-22T15:04:31.083Z,-3.38
2019-01-22T15:07:01.563Z,-3.37
2019-01-22T15:09:51.335Z,-3.49
2019-01-22T15:12:21.792Z,-3.52
2019-01-22T15:15:12.899Z,-3.33
2019-01-22T15:17:43.464Z,-3.37
2019-01-22T15:20:33.460Z,-3.36
2019-01-22T15:23:23.312Z,-3.28
2019-01-22T15:26:13.119Z,-3.24
2019-01-22T15:29:03.003Z,-3.36
2019-01-22T15:31:33.549Z,-3.39
2019-01-22T15:34:23.411Z,-3.35
2019-01-22T15:37:00.110Z,-3.37
2019-01-22T15:39:30.634Z,-3.28
2019-01-22T15:42:20.459Z,-3.39
2019-01-22T15:45:10.388Z,-3.39
2019-01-22T15:48:00.257Z,-3.41
2019-01-22T15:50:51.941Z,-3.36
2019-01-22T15:53:41.733Z,-3.28
2019-01-22T15:56:31.573Z,-3.29
2019-01-22T15:59:21.427Z,-3.33
2019-01-22T16:01:53.730Z,-3.36
2019-01-22T16:04:43.551Z,-3.36
2019-01-22T16:07:33.383Z,-3.35
2019-01-22T16:10:04.397Z,-3.35
2019-01-22T16:12:54.260Z,-3.26
2019-01-22T16:15:44.062Z,-3.15
2019-01-22T16:18:33.908Z,-3.28
2019-01-22T16:21:04.745Z,-3.15
2019-01-22T16:23:54.556Z,-3.23
2019-01-22T16:26:44.396Z,-3.17
2019-01-22T16:29:34.247Z,-3.21
2019-01-22T16:32:04.785Z,-3.20
2019-01-22T16:34:54.577Z,-3.26
2019-01-22T16:37:44.396Z,-3.21
2019-01-22T16:40:34.448Z,-3.27
2019-01-22T16:43:24.098Z,-3.29
2019-01-22T16:45:54.492Z,-3.26
2019-01-22T16:48:24.925Z,-3.17
2019-01-22T16:51:14.776Z,-3.21
2019-01-22T16:54:04.824Z,-3.22
2019-01-22T16:57:00.458Z,-3.27
2019-01-22T16:59:37.091Z,-3.26
2019-01-22T17:02:27.021Z,-3.23
2019-01-22T17:05:17.085Z,-3.08
2019-01-22T17:07:47.488Z,-3.10
2019-01-22T17:10:18.690Z,-3.08
2019-01-22T17:12:49.185Z,-3.04
2019-01-22T17:16:18.408Z,-3.14
2019-01-22T17:19:08.369Z,-3.12
2019-01-22T17:21:38.810Z,-3.15
2019-01-22T17:24:28.605Z,-3.08
2019-01-22T17:27:18.454Z,-3.10
2019-01-22T17:30:11.253Z,-3.04
2019-01-22T17:33:00.623Z,-3.12
2019-01-22T17:38:15.812Z,-3.07
2019-01-22T17:41:05.714Z,-2.94
2019-01-22T17:43:36.167Z,-3.05
2019-01-22T17:46:25.946Z,-3.04
2019-01-22T17:49:15.770Z,-3.08
2019-01-22T17:51:46.339Z,-3.09
2019-01-22T17:54:36.189Z,-2.97
2019-01-22T17:57:25.968Z,-2.98
2019-01-22T18:03:14.910Z,-2.87
2019-01-22T18:06:05.080Z,-2.94
2019-01-22T18:08:54.917Z,-2.96
2019-01-22T18:11:44.747Z,-2.97
2019-01-22T18:14:34.588Z,-2.87
2019-01-22T18:17:05.297Z,-2.97
2019-01-22T18:19:55.222Z,-2.95
2019-01-22T18:22:26.395Z,-2.95
2019-01-22T18:25:16.824Z,-2.93
2019-01-22T18:27:47.239Z,-2.93
2019-01-22T18:30:37.047Z,-2.95
2019-01-22T18:33:26.897Z,-2.95
2019-01-22T18:36:16.844Z,-3.01
2019-01-22T18:39:08.429Z,-2.96
2019-01-22T18:41:58.222Z,-2.99
2019-01-22T18:44:48.083Z,-2.95
2019-01-22T18:47:38.210Z,-2.91
2019-01-22T18:50:28.015Z,-2.89
2019-01-22T18:53:17.791Z,-2.97
2019-01-22T18:56:07.633Z,-3.00
2019-01-22T18:58:57.434Z,-3.04
2019-01-22T19:01:47.300Z,-3.05
2019-01-22T19:04:37.091Z,-3.05
2019-01-22T19:07:26.904Z,-3.09
2019-01-22T19:10:35.752Z,-3.13
2019-01-22T19:13:25.605Z,-3.11
2019-01-22T19:16:15.457Z,-3.05
2019-01-22T19:18:45.926Z,-3.17
2019-01-22T19:21:35.860Z,-3.13
2019-01-22T19:24:25.911Z,-3.23
2019-01-22T19:27:15.755Z,-3.32
2019-01-22T19:30:08.271Z,-3.24
2019-01-22T19:32:38.712Z,-3.30
2019-01-22T19:35:28.582Z,-3.39
2019-01-22T19:37:59.042Z,-3.41
2019-01-22T19:40:48.834Z,-3.35
2019-01-22T19:43:38.646Z,-3.30
2019-01-22T19:46:28.530Z,-3.36
2019-01-22T19:49:18.375Z,-3.34
2019-01-22T19:51:48.812Z,-3.33
2019-01-22T19:54:19.643Z,-3.37
2019-01-22T19:57:09.460Z,-3.34
2019-01-22T19:59:39.853Z,-3.31
2019-01-22T20:02:29.679Z,-3.29
2019-01-22T20:05:19.597Z,-3.24
2019-01-22T20:08:09.747Z,-3.25
2019-01-22T20:10:59.549Z,-3.25
2019-01-22T20:13:49.341Z,-3.27
2019-01-22T20:16:39.216Z,-3.28
2019-01-22T20:19:29.142Z,-3.24
2019-01-22T20:21:59.899Z,-3.30
2019-01-22T20:24:49.729Z,-3.20
2019-01-22T20:27:39.571Z,-3.13
2019-01-22T20:30:31.797Z,-3.32
2019-01-22T20:33:21.720Z,-3.41
2019-01-22T20:36:11.543Z,-3.37
2019-01-22T20:38:43.571Z,-3.32
2019-01-22T20:41:33.381Z,-3.36
2019-01-22T20:44:23.222Z,-3.47
2019-01-22T20:46:53.974Z,-3.55
2019-01-22T20:49:43.842Z,-3.58
2019-01-22T20:52:33.709Z,-3.49
2019-01-22T20:55:23.645Z,-3.44
2019-01-22T20:58:13.513Z,-3.35
2019-01-22T21:00:44.087Z,-3.37
2019-01-22T21:03:33.865Z,-3.45
2019-01-22T21:06:23.734Z,-3.52
2019-01-22T21:09:13.511Z,-3.57
2019-01-22T21:12:03.396Z,-3.63
2019-01-22T21:14:53.179Z,-3.65
2019-01-22T21:17:43.024Z,-3.65
2019-01-22T21:20:32.802Z,-3.60
2019-01-22T21:23:22.608Z,-3.62
2019-01-22T21:25:53.146Z,-3.64
2019-01-22T21:28:42.964Z,-3.57
2019-01-22T21:31:32.722Z,-3.67
2019-01-22T21:34:22.545Z,-3.63
2019-01-22T21:37:12.314Z,-3.71
2019-01-22T21:40:02.125Z,-3.72
2019-01-22T21:42:52.077Z,-3.74
2019-01-22T21:45:41.928Z,-3.67
2019-01-22T21:48:31.746Z,-3.73
2019-01-22T21:51:21.562Z,-3.73
2019-01-22T21:54:11.747Z,-3.78
2019-01-22T21:59:52.659Z,-3.74
2019-01-22T22:02:28.758Z,-3.80
2019-01-22T22:08:24.414Z,-3.67
2019-01-22T22:11:14.181Z,-3.78
2019-01-22T22:14:03.990Z,-3.73
2019-01-22T22:16:53.745Z,-3.80
2019-01-22T22:19:43.604Z,-3.85
2019-01-22T22:22:33.393Z,-3.88
2019-01-22T22:28:26.377Z,-3.88
2019-01-22T22:31:16.236Z,-3.91
2019-01-22T22:33:46.695Z,-3.94
2019-01-22T22:36:36.476Z,-3.89
2019-01-22T22:39:11.404Z,-3.96
2019-01-22T22:42:01.238Z,-3.89
2019-01-22T22:44:51.010Z,-3.97
2019-01-22T22:47:21.414Z,-3.88
2019-01-22T22:50:14.586Z,-3.89
2019-01-22T22:53:04.390Z,-3.92
2019-01-22T22:55:34.880Z,-3.78
2019-01-22T22:58:05.406Z,-3.82
2019-01-22T23:01:14.195Z,-3.85
2019-01-22T23:04:04.119Z,-3.94
2019-01-22T23:06:53.952Z,-4.06
2019-01-22T23:09:43.842Z,-4.10
2019-01-22T23:12:34.036Z,-4.02
2019-01-22T23:15:23.839Z,-3.95
2019-01-22T23:18:13.749Z,-4.10
2019-01-22T23:21:03.562Z,-4.14
2019-01-22T23:23:53.379Z,-4.12
2019-01-22T23:26:43.180Z,-4.12
2019-01-22T23:29:32.997Z,-4.14
2019-01-22T23:32:22.801Z,-4.23
2019-01-22T23:38:14.748Z,-4.31
2019-01-22T23:41:04.544Z,-4.32
2019-01-22T23:43:54.309Z,-4.27
2019-01-22T23:46:44.071Z,-4.24
2019-01-22T23:49:33.924Z,-4.22
2019-01-22T23:52:23.682Z,-4.18
2019-01-22T23:55:13.662Z,-4.21
2019-01-22T23:58:03.439Z,-4.25
